PAFA/FAI METAR and TAF weather

Enter ICAO airport designator
Station Type Date Time Source
PAFA METAR 2022/05/26 04:53 UTC NOAA

PAFA 260453Z 28010KT 10SM SCT080 BKN110 BKN160 21/01 A2973 RMK AO2 SLP070 VIRGA T02110006


Station Type Date Time Source
PAFA Decoded METAR 2022/05/26 04:53 UTC NOAA

Fairbanks, Fairbanks International Airport, AK, United States (PAFA) 64-48-14N 147-52-34W 140M
May 26, 2022 - 12:53 AM EDT / 2022.05.26 0453 UTC
Wind: from the W (280 degrees) at 12 MPH (10 KT):0
Visibility: 10 mile(s):0
Sky conditions: mostly cloudy
Temperature: 70.0 F (21.1 C)
Dew Point: 33.1 F (0.6 C)
Relative Humidity: 25%
Pressure (altimeter): 29.73 in. Hg (1006 hPa)
ob: PAFA 260453Z 28010KT 10SM SCT080 BKN110 BKN160 21/01 A2973 RMK AO2 SLP070 VIRGA T02110006
cycle: 5

Station Type Date Time Source
PAFA TAF 2022/05/25 20:58 UTC NOAA

TAF
AMD PAFA 251956Z 2520/2624 25010G18KT P6SM SCT080 BKN200
FM260800 24004KT P6SM SCT080

Example: see airport list